sensor_id;sensor_type;location;lat;lon;timestamp;P1;P2;P0
28026;PMS5003;15344;52.342;-1.290;2023-05-08T00:00:46;7;6;
28026;PMS5003;15344;52.342;-1.290;2023-05-08T00:03:11;9;9;
28026;PMS5003;15344;52.342;-1.290;2023-05-08T00:05:36;8;8;
28026;PMS5003;15344;52.342;-1.290;2023-05-08T00:08:02;10;10;
28026;PMS5003;15344;52.342;-1.290;2023-05-08T00:10:27;10;10;
28026;PMS5003;15344;52.342;-1.290;2023-05-08T00:12:52;14;11;
28026;PMS5003;15344;52.342;-1.290;2023-05-08T00:15:18;9;9;
28026;PMS5003;15344;52.342;-1.290;2023-05-08T00:17:43;12;10;
28026;PMS5003;15344;52.342;-1.290;2023-05-08T00:20:09;9;7;
28026;PMS5003;15344;52.342;-1.290;2023-05-08T00:22:34;8;8;
28026;PMS5003;15344;52.342;-1.290;2023-05-08T00:24:59;9;7;
28026;PMS5003;15344;52.342;-1.290;2023-05-08T00:27:25;8;8;
28026;PMS5003;15344;52.342;-1.290;2023-05-08T00:29:50;9;8;
28026;PMS5003;15344;52.342;-1.290;2023-05-08T00:32:15;7;7;
28026;PMS5003;15344;52.342;-1.290;2023-05-08T00:34:41;18;10;
28026;PMS5003;15344;52.342;-1.290;2023-05-08T00:37:07;11;8;
28026;PMS5003;15344;52.342;-1.290;2023-05-08T00:39:32;8;5;
28026;PMS5003;15344;52.342;-1.290;2023-05-08T00:41:58;9;6;
28026;PMS5003;15344;52.342;-1.290;2023-05-08T00:44:23;9;6;
28026;PMS5003;15344;52.342;-1.290;2023-05-08T00:46:48;11;6;
28026;PMS5003;15344;52.342;-1.290;2023-05-08T00:49:13;6;6;
28026;PMS5003;15344;52.342;-1.290;2023-05-08T00:51:39;8;7;
28026;PMS5003;15344;52.342;-1.290;2023-05-08T00:54:04;9;7;
28026;PMS5003;15344;52.342;-1.290;2023-05-08T00:56:29;7;7;
28026;PMS5003;15344;52.342;-1.290;2023-05-08T00:58:55;6;6;
28026;PMS5003;15344;52.342;-1.290;2023-05-08T01:01:20;6;6;
28026;PMS5003;15344;52.342;-1.290;2023-05-08T01:03:45;10;9;
28026;PMS5003;15344;52.342;-1.290;2023-05-08T01:06:11;6;6;
28026;PMS5003;15344;52.342;-1.290;2023-05-08T01:08:36;6;6;
28026;PMS5003;15344;52.342;-1.290;2023-05-08T01:11:05;5;5;
28026;PMS5003;15344;52.342;-1.290;2023-05-08T01:13:30;6;5;
28026;PMS5003;15344;52.342;-1.290;2023-05-08T01:15:53;6;4;
28026;PMS5003;15344;52.342;-1.290;2023-05-08T01:18:18;7;7;
28026;PMS5003;15344;52.342;-1.290;2023-05-08T01:20:43;7;6;
28026;PMS5003;15344;52.342;-1.290;2023-05-08T01:23:14;8;7;
28026;PMS5003;15344;52.342;-1.290;2023-05-08T01:25:41;7;5;
28026;PMS5003;15344;52.342;-1.290;2023-05-08T01:28:05;7;7;
28026;PMS5003;15344;52.342;-1.290;2023-05-08T01:30:30;6;6;
28026;PMS5003;15344;52.342;-1.290;2023-05-08T01:32:50;6;6;
28026;PMS5003;15344;52.342;-1.290;2023-05-08T01:35:16;7;7;
28026;PMS5003;15344;52.342;-1.290;2023-05-08T01:37:40;7;7;
28026;PMS5003;15344;52.342;-1.290;2023-05-08T01:40:08;8;6;
28026;PMS5003;15344;52.342;-1.290;2023-05-08T01:42:32;8;6;
28026;PMS5003;15344;52.342;-1.290;2023-05-08T01:44:57;10;9;
28026;PMS5003;15344;52.342;-1.290;2023-05-08T01:47:22;7;6;
28026;PMS5003;15344;52.342;-1.290;2023-05-08T01:49:47;7;5;
28026;PMS5003;15344;52.342;-1.290;2023-05-08T01:52:13;6;4;
28026;PMS5003;15344;52.342;-1.290;2023-05-08T01:54:38;5;5;
28026;PMS5003;15344;52.342;-1.290;2023-05-08T01:57:02;5;5;
28026;PMS5003;15344;52.342;-1.290;2023-05-08T01:59:27;4;4;
28026;PMS5003;15344;52.342;-1.290;2023-05-08T02:01:54;5;4;
28026;PMS5003;15344;52.342;-1.290;2023-05-08T02:04:18;8;5;
28026;PMS5003;15344;52.342;-1.290;2023-05-08T02:06:43;7;6;
28026;PMS5003;15344;52.342;-1.290;2023-05-08T02:09:08;6;6;
28026;PMS5003;15344;52.342;-1.290;2023-05-08T02:11:34;7;6;
28026;PMS5003;15344;52.342;-1.290;2023-05-08T02:13:59;5;5;
28026;PMS5003;15344;52.342;-1.290;2023-05-08T02:16:24;6;5;
28026;PMS5003;15344;52.342;-1.290;2023-05-08T02:18:50;5;4;
28026;PMS5003;15344;52.342;-1.290;2023-05-08T02:21:15;6;4;
28026;PMS5003;15344;52.342;-1.290;2023-05-08T02:23:40;7;3;
28026;PMS5003;15344;52.342;-1.290;2023-05-08T02:26:05;4;4;
28026;PMS5003;15344;52.342;-1.290;2023-05-08T02:28:31;6;4;
28026;PMS5003;15344;52.342;-1.290;2023-05-08T02:30:56;4;4;
28026;PMS5003;15344;52.342;-1.290;2023-05-08T02:33:21;4;4;
28026;PMS5003;15344;52.342;-1.290;2023-05-08T02:35:47;4;4;
28026;PMS5003;15344;52.342;-1.290;2023-05-08T02:38:12;5;4;
28026;PMS5003;15344;52.342;-1.290;2023-05-08T02:40:38;5;5;
28026;PMS5003;15344;52.342;-1.290;2023-05-08T02:43:02;6;5;
28026;PMS5003;15344;52.342;-1.290;2023-05-08T02:45:33;5;3;
28026;PMS5003;15344;52.342;-1.290;2023-05-08T02:48:00;6;4;
28026;PMS5003;15344;52.342;-1.290;2023-05-08T02:50:19;6;3;
28026;PMS5003;15344;52.342;-1.290;2023-05-08T02:52:44;7;5;
28026;PMS5003;15344;52.342;-1.290;2023-05-08T02:55:10;4;4;
28026;PMS5003;15344;52.342;-1.290;2023-05-08T02:57:36;4;4;
28026;PMS5003;15344;52.342;-1.290;2023-05-08T03:00:02;4;4;
28026;PMS5003;15344;52.342;-1.290;2023-05-08T03:02:27;6;4;
28026;PMS5003;15344;52.342;-1.290;2023-05-08T03:04:51;4;3;
28026;PMS5003;15344;52.342;-1.290;2023-05-08T03:07:15;3;3;
28026;PMS5003;15344;52.342;-1.290;2023-05-08T03:09:41;3;3;
28026;PMS5003;15344;52.342;-1.290;2023-05-08T03:12:08;4;4;
28026;PMS5003;15344;52.342;-1.290;2023-05-08T03:14:33;2;2;
28026;PMS5003;15344;52.342;-1.290;2023-05-08T03:16:57;3;3;
28026;PMS5003;15344;52.342;-1.290;2023-05-08T03:19:23;4;3;
28026;PMS5003;15344;52.342;-1.290;2023-05-08T03:21:48;5;4;
28026;PMS5003;15344;52.342;-1.290;2023-05-08T03:24:13;3;3;
28026;PMS5003;15344;52.342;-1.290;2023-05-08T03:26:39;5;5;
28026;PMS5003;15344;52.342;-1.290;2023-05-08T03:29:04;4;4;
28026;PMS5003;15344;52.342;-1.290;2023-05-08T03:31:29;5;5;
28026;PMS5003;15344;52.342;-1.290;2023-05-08T03:33:54;4;4;
28026;PMS5003;15344;52.342;-1.290;2023-05-08T03:36:20;4;4;
28026;PMS5003;15344;52.342;-1.290;2023-05-08T03:38:45;4;3;
28026;PMS5003;15344;52.342;-1.290;2023-05-08T03:41:10;4;4;
28026;PMS5003;15344;52.342;-1.290;2023-05-08T03:43:36;5;3;
28026;PMS5003;15344;52.342;-1.290;2023-05-08T03:46:01;4;4;
28026;PMS5003;15344;52.342;-1.290;2023-05-08T03:48:26;4;4;
28026;PMS5003;15344;52.342;-1.290;2023-05-08T03:50:51;4;4;
28026;PMS5003;15344;52.342;-1.290;2023-05-08T03:53:16;7;5;
28026;PMS5003;15344;52.342;-1.290;2023-05-08T03:55:42;6;4;
28026;PMS5003;15344;52.342;-1.290;2023-05-08T03:58:09;4;4;
28026;PMS5003;15344;52.342;-1.290;2023-05-08T04:00:36;6;3;
28026;PMS5003;15344;52.342;-1.290;2023-05-08T04:03:01;6;5;
28026;PMS5003;15344;52.342;-1.290;2023-05-08T04:05:24;5;4;
28026;PMS5003;15344;52.342;-1.290;2023-05-08T04:07:49;7;4;
28026;PMS5003;15344;52.342;-1.290;2023-05-08T04:10:15;3;3;
28026;PMS5003;15344;52.342;-1.290;2023-05-08T04:12:39;3;3;
28026;PMS5003;15344;52.342;-1.290;2023-05-08T04:15:05;3;3;
28026;PMS5003;15344;52.342;-1.290;2023-05-08T04:17:32;3;3;
28026;PMS5003;15344;52.342;-1.290;2023-05-08T04:19:59;4;4;
28026;PMS5003;15344;52.342;-1.290;2023-05-08T04:22:20;4;4;
28026;PMS5003;15344;52.342;-1.290;2023-05-08T04:24:45;4;4;
28026;PMS5003;15344;52.342;-1.290;2023-05-08T04:27:10;7;6;
28026;PMS5003;15344;52.342;-1.290;2023-05-08T04:29:36;5;4;
28026;PMS5003;15344;52.342;-1.290;2023-05-08T04:32:02;4;4;
28026;PMS5003;15344;52.342;-1.290;2023-05-08T04:34:27;3;3;
28026;PMS5003;15344;52.342;-1.290;2023-05-08T04:36:52;3;3;
28026;PMS5003;15344;52.342;-1.290;2023-05-08T04:39:17;3;2;
28026;PMS5003;15344;52.342;-1.290;2023-05-08T04:41:42;5;4;
28026;PMS5003;15344;52.342;-1.290;2023-05-08T04:44:08;5;3;
28026;PMS5003;15344;52.342;-1.290;2023-05-08T04:46:33;5;3;
28026;PMS5003;15344;52.342;-1.290;2023-05-08T04:48:58;7;5;
28026;PMS5003;15344;52.342;-1.290;2023-05-08T04:51:23;7;5;
28026;PMS5003;15344;52.342;-1.290;2023-05-08T04:53:49;4;4;
28026;PMS5003;15344;52.342;-1.290;2023-05-08T04:56:14;6;5;
28026;PMS5003;15344;52.342;-1.290;2023-05-08T04:58:39;5;3;
28026;PMS5003;15344;52.342;-1.290;2023-05-08T05:01:04;7;6;
28026;PMS5003;15344;52.342;-1.290;2023-05-08T05:03:30;4;3;
28026;PMS5003;15344;52.342;-1.290;2023-05-08T05:05:56;4;4;
28026;PMS5003;15344;52.342;-1.290;2023-05-08T05:08:20;8;6;
28026;PMS5003;15344;52.342;-1.290;2023-05-08T05:10:45;7;7;
28026;PMS5003;15344;52.342;-1.290;2023-05-08T05:13:11;9;7;
28026;PMS5003;15344;52.342;-1.290;2023-05-08T05:15:36;8;7;
28026;PMS5003;15344;52.342;-1.290;2023-05-08T05:18:01;8;8;
28026;PMS5003;15344;52.342;-1.290;2023-05-08T05:20:27;7;6;
28026;PMS5003;15344;52.342;-1.290;2023-05-08T05:22:52;9;7;
28026;PMS5003;15344;52.342;-1.290;2023-05-08T05:25:18;10;9;
28026;PMS5003;15344;52.342;-1.290;2023-05-08T05:27:43;10;8;
28026;PMS5003;15344;52.342;-1.290;2023-05-08T05:30:08;10;7;
28026;PMS5003;15344;52.342;-1.290;2023-05-08T05:32:33;10;9;
28026;PMS5003;15344;52.342;-1.290;2023-05-08T05:34:59;6;6;
28026;PMS5003;15344;52.342;-1.290;2023-05-08T05:37:25;8;5;
28026;PMS5003;15344;52.342;-1.290;2023-05-08T05:39:50;9;6;
28026;PMS5003;15344;52.342;-1.290;2023-05-08T05:42:15;8;7;
28026;PMS5003;15344;52.342;-1.290;2023-05-08T05:44:40;7;6;
28026;PMS5003;15344;52.342;-1.290;2023-05-08T05:47:06;11;6;
28026;PMS5003;15344;52.342;-1.290;2023-05-08T05:49:31;8;6;
28026;PMS5003;15344;52.342;-1.290;2023-05-08T05:51:56;10;8;
28026;PMS5003;15344;52.342;-1.290;2023-05-08T05:54:21;11;10;
28026;PMS5003;15344;52.342;-1.290;2023-05-08T05:56:47;7;7;
28026;PMS5003;15344;52.342;-1.290;2023-05-08T05:59:13;7;7;
28026;PMS5003;15344;52.342;-1.290;2023-05-08T06:01:38;7;6;
28026;PMS5003;15344;52.342;-1.290;2023-05-08T06:04:03;7;7;
28026;PMS5003;15344;52.342;-1.290;2023-05-08T06:06:28;12;7;
28026;PMS5003;15344;52.342;-1.290;2023-05-08T06:08:54;10;9;
28026;PMS5003;15344;52.342;-1.290;2023-05-08T06:11:19;6;6;
28026;PMS5003;15344;52.342;-1.290;2023-05-08T06:13:44;8;4;
28026;PMS5003;15344;52.342;-1.290;2023-05-08T06:16:09;8;7;
28026;PMS5003;15344;52.342;-1.290;2023-05-08T06:18:35;9;6;
28026;PMS5003;15344;52.342;-1.290;2023-05-08T06:21:01;7;5;
28026;PMS5003;15344;52.342;-1.290;2023-05-08T06:23:26;8;8;
28026;PMS5003;15344;52.342;-1.290;2023-05-08T06:25:51;5;5;
28026;PMS5003;15344;52.342;-1.290;2023-05-08T06:28:16;10;5;
28026;PMS5003;15344;52.342;-1.290;2023-05-08T06:30:42;11;7;
28026;PMS5003;15344;52.342;-1.290;2023-05-08T06:33:07;7;7;
28026;PMS5003;15344;52.342;-1.290;2023-05-08T06:35:32;7;7;
28026;PMS5003;15344;52.342;-1.290;2023-05-08T06:37:57;6;6;
28026;PMS5003;15344;52.342;-1.290;2023-05-08T06:40:23;6;5;
28026;PMS5003;15344;52.342;-1.290;2023-05-08T06:42:48;5;5;
28026;PMS5003;15344;52.342;-1.290;2023-05-08T06:45:13;5;5;
28026;PMS5003;15344;52.342;-1.290;2023-05-08T06:47:39;7;6;
28026;PMS5003;15344;52.342;-1.290;2023-05-08T06:50:04;8;5;
28026;PMS5003;15344;52.342;-1.290;2023-05-08T06:52:29;7;7;
28026;PMS5003;15344;52.342;-1.290;2023-05-08T06:54:55;5;5;
28026;PMS5003;15344;52.342;-1.290;2023-05-08T06:57:20;5;4;
28026;PMS5003;15344;52.342;-1.290;2023-05-08T06:59:45;11;5;
28026;PMS5003;15344;52.342;-1.290;2023-05-08T07:02:11;11;5;
28026;PMS5003;15344;52.342;-1.290;2023-05-08T07:04:36;7;4;
28026;PMS5003;15344;52.342;-1.290;2023-05-08T07:07:01;6;4;
28026;PMS5003;15344;52.342;-1.290;2023-05-08T07:09:26;3;2;
28026;PMS5003;15344;52.342;-1.290;2023-05-08T07:11:52;4;2;
28026;PMS5003;15344;52.342;-1.290;2023-05-08T07:14:17;7;4;
28026;PMS5003;15344;52.342;-1.290;2023-05-08T07:16:42;5;2;
28026;PMS5003;15344;52.342;-1.290;2023-05-08T07:19:08;4;2;
28026;PMS5003;15344;52.342;-1.290;2023-05-08T07:21:33;6;3;
28026;PMS5003;15344;52.342;-1.290;2023-05-08T07:23:58;4;4;
28026;PMS5003;15344;52.342;-1.290;2023-05-08T07:26:23;6;6;
28026;PMS5003;15344;52.342;-1.290;2023-05-08T07:28:49;2;2;
28026;PMS5003;15344;52.342;-1.290;2023-05-08T07:31:14;10;6;
28026;PMS5003;15344;52.342;-1.290;2023-05-08T07:33:39;6;5;
28026;PMS5003;15344;52.342;-1.290;2023-05-08T07:36:05;8;3;
28026;PMS5003;15344;52.342;-1.290;2023-05-08T07:38:30;6;5;
28026;PMS5003;15344;52.342;-1.290;2023-05-08T07:40:55;5;4;
28026;PMS5003;15344;52.342;-1.290;2023-05-08T07:43:20;9;8;
28026;PMS5003;15344;52.342;-1.290;2023-05-08T07:45:45;4;4;
28026;PMS5003;15344;52.342;-1.290;2023-05-08T07:48:11;6;5;
28026;PMS5003;15344;52.342;-1.290;2023-05-08T07:50:36;9;5;
28026;PMS5003;15344;52.342;-1.290;2023-05-08T07:53:01;5;5;
28026;PMS5003;15344;52.342;-1.290;2023-05-08T07:55:27;6;6;
28026;PMS5003;15344;52.342;-1.290;2023-05-08T07:57:52;7;5;
28026;PMS5003;15344;52.342;-1.290;2023-05-08T08:00:17;6;6;
28026;PMS5003;15344;52.342;-1.290;2023-05-08T08:02:42;4;4;
28026;PMS5003;15344;52.342;-1.290;2023-05-08T08:05:08;4;3;
28026;PMS5003;15344;52.342;-1.290;2023-05-08T08:07:33;9;7;
28026;PMS5003;15344;52.342;-1.290;2023-05-08T08:09:58;8;5;
28026;PMS5003;15344;52.342;-1.290;2023-05-08T08:12:23;9;7;
28026;PMS5003;15344;52.342;-1.290;2023-05-08T08:14:49;8;5;
28026;PMS5003;15344;52.342;-1.290;2023-05-08T08:17:14;6;5;
28026;PMS5003;15344;52.342;-1.290;2023-05-08T08:19:39;5;4;
28026;PMS5003;15344;52.342;-1.290;2023-05-08T08:22:04;6;6;
28026;PMS5003;15344;52.342;-1.290;2023-05-08T08:24:30;5;5;
28026;PMS5003;15344;52.342;-1.290;2023-05-08T08:26:55;8;4;
28026;PMS5003;15344;52.342;-1.290;2023-05-08T08:29:20;5;5;
28026;PMS5003;15344;52.342;-1.290;2023-05-08T08:31:45;9;6;
28026;PMS5003;15344;52.342;-1.290;2023-05-08T08:34:11;5;5;
28026;PMS5003;15344;52.342;-1.290;2023-05-08T08:36:36;4;4;
28026;PMS5003;15344;52.342;-1.290;2023-05-08T08:39:01;8;6;
28026;PMS5003;15344;52.342;-1.290;2023-05-08T08:41:26;7;5;
28026;PMS5003;15344;52.342;-1.290;2023-05-08T08:43:52;6;6;
28026;PMS5003;15344;52.342;-1.290;2023-05-08T08:46:17;7;6;
28026;PMS5003;15344;52.342;-1.290;2023-05-08T08:48:43;6;6;
28026;PMS5003;15344;52.342;-1.290;2023-05-08T08:51:10;5;5;
28026;PMS5003;15344;52.342;-1.290;2023-05-08T08:53:34;9;7;
28026;PMS5003;15344;52.342;-1.290;2023-05-08T08:55:59;4;4;
28026;PMS5003;15344;52.342;-1.290;2023-05-08T08:58:25;8;7;
28026;PMS5003;15344;52.342;-1.290;2023-05-08T09:00:49;8;7;
28026;PMS5003;15344;52.342;-1.290;2023-05-08T09:03:15;8;4;
28026;PMS5003;15344;52.342;-1.290;2023-05-08T09:05:40;8;7;
28026;PMS5003;15344;52.342;-1.290;2023-05-08T09:08:05;5;5;
28026;PMS5003;15344;52.342;-1.290;2023-05-08T09:10:31;4;4;
28026;PMS5003;15344;52.342;-1.290;2023-05-08T09:12:56;7;6;
28026;PMS5003;15344;52.342;-1.290;2023-05-08T09:15:21;5;4;
28026;PMS5003;15344;52.342;-1.290;2023-05-08T09:17:46;5;5;
28026;PMS5003;15344;52.342;-1.290;2023-05-08T09:20:13;7;7;
28026;PMS5003;15344;52.342;-1.290;2023-05-08T09:22:37;6;6;
28026;PMS5003;15344;52.342;-1.290;2023-05-08T09:25:03;3;3;
28026;PMS5003;15344;52.342;-1.290;2023-05-08T09:27:29;4;4;
28026;PMS5003;15344;52.342;-1.290;2023-05-08T09:32:18;5;5;
28026;PMS5003;15344;52.342;-1.290;2023-05-08T09:34:43;5;5;
28026;PMS5003;15344;52.342;-1.290;2023-05-08T09:37:10;4;4;
28026;PMS5003;15344;52.342;-1.290;2023-05-08T09:39:34;6;6;
28026;PMS5003;15344;52.342;-1.290;2023-05-08T09:42:00;6;5;
28026;PMS5003;15344;52.342;-1.290;2023-05-08T09:44:24;8;7;
28026;PMS5003;15344;52.342;-1.290;2023-05-08T09:46:50;7;7;
28026;PMS5003;15344;52.342;-1.290;2023-05-08T09:49:16;7;7;
28026;PMS5003;15344;52.342;-1.290;2023-05-08T09:51:40;8;7;
28026;PMS5003;15344;52.342;-1.290;2023-05-08T09:54:06;7;7;
28026;PMS5003;15344;52.342;-1.290;2023-05-08T09:56:31;5;5;
28026;PMS5003;15344;52.342;-1.290;2023-05-08T09:58:56;5;5;
28026;PMS5003;15344;52.342;-1.290;2023-05-08T10:03:46;6;3;
28026;PMS5003;15344;52.342;-1.290;2023-05-08T10:06:12;3;3;
28026;PMS5003;15344;52.342;-1.290;2023-05-08T10:08:37;5;5;
28026;PMS5003;15344;52.342;-1.290;2023-05-08T10:13:27;4;4;
28026;PMS5003;15344;52.342;-1.290;2023-05-08T10:15:53;4;2;
28026;PMS5003;15344;52.342;-1.290;2023-05-08T10:18:18;3;3;
28026;PMS5003;15344;52.342;-1.290;2023-05-08T10:20:43;6;5;
28026;PMS5003;15344;52.342;-1.290;2023-05-08T10:23:09;6;5;
28026;PMS5003;15344;52.342;-1.290;2023-05-08T10:25:33;4;4;
28026;PMS5003;15344;52.342;-1.290;2023-05-08T10:28:02;5;5;
28026;PMS5003;15344;52.342;-1.290;2023-05-08T10:30:24;3;3;
28026;PMS5003;15344;52.342;-1.290;2023-05-08T10:32:50;4;4;
28026;PMS5003;15344;52.342;-1.290;2023-05-08T10:35:14;6;6;
28026;PMS5003;15344;52.342;-1.290;2023-05-08T10:37:39;4;4;
28026;PMS5003;15344;52.342;-1.290;2023-05-08T10:40:05;2;2;
28026;PMS5003;15344;52.342;-1.290;2023-05-08T10:42:30;2;2;
28026;PMS5003;15344;52.342;-1.290;2023-05-08T10:44:55;3;3;
28026;PMS5003;15344;52.342;-1.290;2023-05-08T10:47:21;4;3;
28026;PMS5003;15344;52.342;-1.290;2023-05-08T10:49:47;5;4;
28026;PMS5003;15344;52.342;-1.290;2023-05-08T10:52:13;3;2;
28026;PMS5003;15344;52.342;-1.290;2023-05-08T10:54:37;4;4;
28026;PMS5003;15344;52.342;-1.290;2023-05-08T10:59:27;3;2;
28026;PMS5003;15344;52.342;-1.290;2023-05-08T11:01:52;5;3;
28026;PMS5003;15344;52.342;-1.290;2023-05-08T11:04:18;5;3;
28026;PMS5003;15344;52.342;-1.290;2023-05-08T11:06:43;5;4;
28026;PMS5003;15344;52.342;-1.290;2023-05-08T11:09:07;2;2;
28026;PMS5003;15344;52.342;-1.290;2023-05-08T11:11:35;3;3;
28026;PMS5003;15344;52.342;-1.290;2023-05-08T11:14:01;4;4;
28026;PMS5003;15344;52.342;-1.290;2023-05-08T11:21:14;3;3;
28026;PMS5003;15344;52.342;-1.290;2023-05-08T11:23:39;5;2;
28026;PMS5003;15344;52.342;-1.290;2023-05-08T11:26:05;4;4;
28026;PMS5003;15344;52.342;-1.290;2023-05-08T11:28:30;1;1;
28026;PMS5003;15344;52.342;-1.290;2023-05-08T11:30:54;2;2;
28026;PMS5003;15344;52.342;-1.290;2023-05-08T11:33:20;2;2;
28026;PMS5003;15344;52.342;-1.290;2023-05-08T11:35:46;2;2;
28026;PMS5003;15344;52.342;-1.290;2023-05-08T11:38:14;2;2;
28026;PMS5003;15344;52.342;-1.290;2023-05-08T11:45:25;0;0;
28026;PMS5003;15344;52.342;-1.290;2023-05-08T11:47:50;2;2;
28026;PMS5003;15344;52.342;-1.290;2023-05-08T11:50:16;3;3;
28026;PMS5003;15344;52.342;-1.290;2023-05-08T11:52:41;3;1;
28026;PMS5003;15344;52.342;-1.290;2023-05-08T11:55:07;2;2;
28026;PMS5003;15344;52.342;-1.290;2023-05-08T11:57:31;1;1;
28026;PMS5003;15344;52.342;-1.290;2023-05-08T11:59:56;3;3;
28026;PMS5003;15344;52.342;-1.290;2023-05-08T12:04:47;2;2;
28026;PMS5003;15344;52.342;-1.290;2023-05-08T12:07:12;3;2;
28026;PMS5003;15344;52.342;-1.290;2023-05-08T12:09:37;2;2;
28026;PMS5003;15344;52.342;-1.290;2023-05-08T12:12:02;2;2;
28026;PMS5003;15344;52.342;-1.290;2023-05-08T12:14:27;1;1;
28026;PMS5003;15344;52.342;-1.290;2023-05-08T12:16:53;4;3;
28026;PMS5003;15344;52.342;-1.290;2023-05-08T12:19:18;0;0;
28026;PMS5003;15344;52.342;-1.290;2023-05-08T12:21:44;2;2;
28026;PMS5003;15344;52.342;-1.290;2023-05-08T12:24:09;3;3;
28026;PMS5003;15344;52.342;-1.290;2023-05-08T12:26:34;2;1;
28026;PMS5003;15344;52.342;-1.290;2023-05-08T12:28:59;1;1;
28026;PMS5003;15344;52.342;-1.290;2023-05-08T12:31:24;2;2;
28026;PMS5003;15344;52.342;-1.290;2023-05-08T12:33:49;1;1;
28026;PMS5003;15344;52.342;-1.290;2023-05-08T12:36:14;1;1;
28026;PMS5003;15344;52.342;-1.290;2023-05-08T12:38:39;2;2;
28026;PMS5003;15344;52.342;-1.290;2023-05-08T12:41:04;1;1;
28026;PMS5003;15344;52.342;-1.290;2023-05-08T12:43:30;2;2;
28026;PMS5003;15344;52.342;-1.290;2023-05-08T12:45:55;1;1;
28026;PMS5003;15344;52.342;-1.290;2023-05-08T12:48:20;2;2;
28026;PMS5003;15344;52.342;-1.290;2023-05-08T12:50:45;1;1;
28026;PMS5003;15344;52.342;-1.290;2023-05-08T12:53:11;2;2;
28026;PMS5003;15344;52.342;-1.290;2023-05-08T12:55:36;1;1;
28026;PMS5003;15344;52.342;-1.290;2023-05-08T12:58:01;2;2;
28026;PMS5003;15344;52.342;-1.290;2023-05-08T13:02:52;2;2;
28026;PMS5003;15344;52.342;-1.290;2023-05-08T13:05:18;2;2;
28026;PMS5003;15344;52.342;-1.290;2023-05-08T13:07:42;3;2;
28026;PMS5003;15344;52.342;-1.290;2023-05-08T13:10:07;2;2;
28026;PMS5003;15344;52.342;-1.290;2023-05-08T13:12:33;3;3;
28026;PMS5003;15344;52.342;-1.290;2023-05-08T13:14:58;0;0;
28026;PMS5003;15344;52.342;-1.290;2023-05-08T13:17:23;3;3;
28026;PMS5003;15344;52.342;-1.290;2023-05-08T13:19:48;1;1;
28026;PMS5003;15344;52.342;-1.290;2023-05-08T13:22:13;2;2;
28026;PMS5003;15344;52.342;-1.290;2023-05-08T13:24:38;3;2;
28026;PMS5003;15344;52.342;-1.290;2023-05-08T13:27:03;3;3;
28026;PMS5003;15344;52.342;-1.290;2023-05-08T13:29:29;3;2;
28026;PMS5003;15344;52.342;-1.290;2023-05-08T13:31:54;4;2;
28026;PMS5003;15344;52.342;-1.290;2023-05-08T13:34:19;4;3;
28026;PMS5003;15344;52.342;-1.290;2023-05-08T13:36:44;2;2;
28026;PMS5003;15344;52.342;-1.290;2023-05-08T13:39:09;2;2;
28026;PMS5003;15344;52.342;-1.290;2023-05-08T13:41:36;2;2;
28026;PMS5003;15344;52.342;-1.290;2023-05-08T13:44:00;2;2;
28026;PMS5003;15344;52.342;-1.290;2023-05-08T13:46:25;4;3;
28026;PMS5003;15344;52.342;-1.290;2023-05-08T13:48:50;4;3;
28026;PMS5003;15344;52.342;-1.290;2023-05-08T13:51:15;3;3;
28026;PMS5003;15344;52.342;-1.290;2023-05-08T13:53:40;4;3;
28026;PMS5003;15344;52.342;-1.290;2023-05-08T13:56:06;3;3;
28026;PMS5003;15344;52.342;-1.290;2023-05-08T13:58:31;4;4;
28026;PMS5003;15344;52.342;-1.290;2023-05-08T14:00:56;4;4;
28026;PMS5003;15344;52.342;-1.290;2023-05-08T14:03:21;5;3;
28026;PMS5003;15344;52.342;-1.290;2023-05-08T14:05:46;2;2;
28026;PMS5003;15344;52.342;-1.290;2023-05-08T14:08:11;3;3;
28026;PMS5003;15344;52.342;-1.290;2023-05-08T14:10:36;3;2;
28026;PMS5003;15344;52.342;-1.290;2023-05-08T14:13:02;3;3;
28026;PMS5003;15344;52.342;-1.290;2023-05-08T14:15:27;5;5;
28026;PMS5003;15344;52.342;-1.290;2023-05-08T14:17:52;4;4;
28026;PMS5003;15344;52.342;-1.290;2023-05-08T14:20:17;2;2;
28026;PMS5003;15344;52.342;-1.290;2023-05-08T14:22:42;3;3;
28026;PMS5003;15344;52.342;-1.290;2023-05-08T14:25:08;3;3;
28026;PMS5003;15344;52.342;-1.290;2023-05-08T14:27:33;4;3;
28026;PMS5003;15344;52.342;-1.290;2023-05-08T14:29:58;5;5;
28026;PMS5003;15344;52.342;-1.290;2023-05-08T14:32:23;6;3;
28026;PMS5003;15344;52.342;-1.290;2023-05-08T14:34:48;2;2;
28026;PMS5003;15344;52.342;-1.290;2023-05-08T14:37:13;7;4;
28026;PMS5003;15344;52.342;-1.290;2023-05-08T14:39:39;4;4;
28026;PMS5003;15344;52.342;-1.290;2023-05-08T14:42:04;2;2;
28026;PMS5003;15344;52.342;-1.290;2023-05-08T14:44:29;5;3;
28026;PMS5003;15344;52.342;-1.290;2023-05-08T14:46:54;3;3;
28026;PMS5003;15344;52.342;-1.290;2023-05-08T14:49:19;2;2;
28026;PMS5003;15344;52.342;-1.290;2023-05-08T14:51:44;3;3;
28026;PMS5003;15344;52.342;-1.290;2023-05-08T14:54:10;2;2;
28026;PMS5003;15344;52.342;-1.290;2023-05-08T14:56:35;4;2;
28026;PMS5003;15344;52.342;-1.290;2023-05-08T14:59:00;2;2;
28026;PMS5003;15344;52.342;-1.290;2023-05-08T15:01:25;4;2;
28026;PMS5003;15344;52.342;-1.290;2023-05-08T15:03:50;2;2;
28026;PMS5003;15344;52.342;-1.290;2023-05-08T15:06:15;2;2;
28026;PMS5003;15344;52.342;-1.290;2023-05-08T15:08:40;1;1;
28026;PMS5003;15344;52.342;-1.290;2023-05-08T15:11:05;3;3;
28026;PMS5003;15344;52.342;-1.290;2023-05-08T15:13:31;2;2;
28026;PMS5003;15344;52.342;-1.290;2023-05-08T15:15:56;5;4;
28026;PMS5003;15344;52.342;-1.290;2023-05-08T15:18:21;4;4;
28026;PMS5003;15344;52.342;-1.290;2023-05-08T15:20:46;3;3;
28026;PMS5003;15344;52.342;-1.290;2023-05-08T15:23:11;3;3;
28026;PMS5003;15344;52.342;-1.290;2023-05-08T15:25:36;5;4;
28026;PMS5003;15344;52.342;-1.290;2023-05-08T15:28:02;4;4;
28026;PMS5003;15344;52.342;-1.290;2023-05-08T15:30:27;5;5;
28026;PMS5003;15344;52.342;-1.290;2023-05-08T15:32:53;8;4;
28026;PMS5003;15344;52.342;-1.290;2023-05-08T15:35:18;3;3;
28026;PMS5003;15344;52.342;-1.290;2023-05-08T15:37:43;1;1;
28026;PMS5003;15344;52.342;-1.290;2023-05-08T15:40:09;1;1;
28026;PMS5003;15344;52.342;-1.290;2023-05-08T15:42:33;4;3;
28026;PMS5003;15344;52.342;-1.290;2023-05-08T15:44:59;4;2;
28026;PMS5003;15344;52.342;-1.290;2023-05-08T15:47:24;2;2;
28026;PMS5003;15344;52.342;-1.290;2023-05-08T15:49:49;3;2;
28026;PMS5003;15344;52.342;-1.290;2023-05-08T15:52:14;2;2;
28026;PMS5003;15344;52.342;-1.290;2023-05-08T15:54:39;3;3;
28026;PMS5003;15344;52.342;-1.290;2023-05-08T15:57:04;2;2;
28026;PMS5003;15344;52.342;-1.290;2023-05-08T15:59:30;2;2;
28026;PMS5003;15344;52.342;-1.290;2023-05-08T16:01:55;3;3;
28026;PMS5003;15344;52.342;-1.290;2023-05-08T16:04:20;3;3;
28026;PMS5003;15344;52.342;-1.290;2023-05-08T16:06:45;4;4;
28026;PMS5003;15344;52.342;-1.290;2023-05-08T16:09:10;3;3;
28026;PMS5003;15344;52.342;-1.290;2023-05-08T16:11:35;4;3;
28026;PMS5003;15344;52.342;-1.290;2023-05-08T16:14:00;2;2;
28026;PMS5003;15344;52.342;-1.290;2023-05-08T16:16:26;3;2;
28026;PMS5003;15344;52.342;-1.290;2023-05-08T16:18:52;8;4;
28026;PMS5003;15344;52.342;-1.290;2023-05-08T16:21:17;5;4;
28026;PMS5003;15344;52.342;-1.290;2023-05-08T16:23:42;5;5;
28026;PMS5003;15344;52.342;-1.290;2023-05-08T16:26:07;6;6;
28026;PMS5003;15344;52.342;-1.290;2023-05-08T16:28:32;6;4;
28026;PMS5003;15344;52.342;-1.290;2023-05-08T16:30:57;7;7;
28026;PMS5003;15344;52.342;-1.290;2023-05-08T16:33:23;8;7;
28026;PMS5003;15344;52.342;-1.290;2023-05-08T16:35:48;7;6;
28026;PMS5003;15344;52.342;-1.290;2023-05-08T16:38:13;5;4;
28026;PMS5003;15344;52.342;-1.290;2023-05-08T16:40:38;2;2;
28026;PMS5003;15344;52.342;-1.290;2023-05-08T16:43:03;6;4;